createdAt,value
2018-05-29T00:01:01.983Z,12.53
2018-05-29T00:03:29.608Z,12.70
2018-05-29T00:05:57.239Z,13.37
2018-05-29T00:08:24.871Z,13.83
2018-05-29T00:10:53.267Z,13.83
2018-05-29T00:13:20.900Z,14.17
2018-05-29T00:15:48.528Z,12.80
2018-05-29T00:18:16.159Z,12.43
2018-05-29T00:20:44.551Z,12.77
2018-05-29T00:23:12.183Z,12.47
2018-05-29T00:25:39.822Z,11.83
2018-05-29T00:28:07.450Z,12.90
2018-05-29T00:30:35.350Z,12.90
2018-05-29T00:33:02.984Z,12.50
2018-05-29T00:35:30.622Z,13.20
2018-05-29T00:37:58.258Z,13.20
2018-05-29T00:40:25.968Z,12.83
2018-05-29T00:42:53.599Z,12.67
2018-05-29T00:45:21.223Z,12.93
2018-05-29T00:47:48.850Z,11.80
2018-05-29T00:50:16.483Z,12.03
2018-05-29T00:52:44.122Z,11.60
2018-05-29T00:55:23.568Z,11.37
2018-05-29T00:57:51.211Z,11.10
2018-05-29T01:00:19.351Z,11.73
2018-05-29T01:02:47.003Z,11.93
2018-05-29T01:05:14.636Z,13.53
2018-05-29T01:07:42.264Z,11.87
2018-05-29T01:10:09.899Z,12.33
2018-05-29T01:12:37.531Z,12.03
2018-05-29T01:15:05.155Z,12.20
2018-05-29T01:17:32.787Z,12.00
2018-05-29T01:20:05.199Z,12.03
2018-05-29T01:22:32.838Z,11.73
2018-05-29T01:25:00.472Z,11.53
2018-05-29T01:27:28.098Z,12.43
2018-05-29T01:29:55.736Z,12.10
2018-05-29T01:32:23.364Z,11.77
2018-05-29T01:34:51.025Z,12.77
2018-05-29T01:37:18.652Z,11.87
2018-05-29T01:39:46.283Z,12.30
2018-05-29T01:42:13.919Z,12.90
2018-05-29T01:44:41.547Z,12.47
2018-05-29T01:47:09.190Z,12.53
2018-05-29T01:49:36.825Z,12.80
2018-05-29T01:52:04.460Z,13.67
2018-05-29T01:54:35.606Z,13.13
2018-05-29T01:57:03.238Z,12.90
2018-05-29T01:59:30.884Z,12.07
2018-05-29T02:01:58.514Z,13.40
2018-05-29T02:04:26.349Z,13.20
2018-05-29T02:06:53.922Z,13.63
2018-05-29T02:09:21.547Z,13.27
2018-05-29T02:11:49.175Z,11.90
2018-05-29T02:14:16.823Z,12.07
2018-05-29T02:16:44.460Z,12.87
2018-05-29T02:19:12.084Z,11.87
2018-05-29T02:21:40.042Z,12.77
2018-05-29T02:24:07.672Z,13.27
2018-05-29T02:26:35.308Z,14.37
2018-05-29T02:29:02.946Z,12.70
2018-05-29T02:31:31.339Z,12.43
2018-05-29T02:33:58.978Z,13.33
2018-05-29T02:36:26.604Z,13.03
2018-05-29T02:38:54.235Z,12.77
2018-05-29T02:41:21.858Z,12.57
2018-05-29T02:43:49.489Z,13.07
2018-05-29T02:46:17.120Z,13.80
2018-05-29T02:48:44.756Z,13.90
2018-05-29T02:51:12.392Z,14.03
2018-05-29T02:53:40.026Z,14.63
2018-05-29T02:56:07.652Z,13.00
2018-05-29T02:58:35.285Z,13.27
2018-05-29T03:01:02.915Z,13.80
2018-05-29T03:03:30.544Z,13.37
2018-05-29T03:05:58.180Z,13.77
2018-05-29T03:08:25.811Z,13.90
2018-05-29T03:10:53.695Z,14.67
2018-05-29T03:13:21.335Z,13.80
2018-05-29T03:15:48.971Z,13.60
2018-05-29T03:18:16.613Z,13.37
2018-05-29T03:20:44.236Z,13.73
2018-05-29T03:23:11.859Z,14.23
2018-05-29T03:25:39.491Z,13.67
2018-05-29T03:28:07.890Z,13.77
2018-05-29T03:30:35.529Z,13.27
2018-05-29T03:33:03.167Z,14.00
2018-05-29T03:35:30.811Z,13.47
2018-05-29T03:37:58.439Z,14.13
2018-05-29T03:40:26.842Z,13.27
2018-05-29T03:42:54.475Z,13.57
2018-05-29T03:45:22.111Z,14.53
2018-05-29T03:47:49.746Z,14.07
2018-05-29T03:50:17.387Z,13.63
2018-05-29T03:52:45.784Z,13.87
2018-05-29T03:55:14.188Z,13.90
2018-05-29T03:57:49.976Z,14.03
2018-05-29T04:00:17.736Z,14.10
2018-05-29T04:02:45.598Z,18.00
2018-05-29T04:05:15.639Z,14.30
2018-05-29T04:07:43.259Z,13.90
2018-05-29T04:10:10.898Z,14.27
2018-05-29T04:12:38.537Z,13.67
2018-05-29T04:15:06.167Z,13.83
2018-05-29T04:17:33.814Z,13.50
2018-05-29T04:20:01.436Z,13.97
2018-05-29T04:22:29.080Z,13.63
2018-05-29T04:24:56.703Z,13.00
2018-05-29T04:27:24.738Z,13.30
2018-05-29T04:29:52.424Z,13.23
2018-05-29T04:32:20.060Z,14.90
2018-05-29T04:34:47.692Z,14.27
2018-05-29T04:37:15.323Z,13.50
2018-05-29T04:39:42.962Z,13.87
2018-05-29T04:42:10.589Z,13.07
2018-05-29T04:44:38.219Z,13.00
2018-05-29T04:47:05.937Z,14.87
2018-05-29T04:49:33.526Z,14.40
2018-05-29T04:52:01.122Z,13.97
2018-05-29T04:54:28.748Z,14.63
2018-05-29T04:56:56.380Z,14.00
2018-05-29T04:59:24.008Z,14.67
2018-05-29T05:01:51.639Z,15.10
2018-05-29T05:04:19.286Z,14.97
2018-05-29T05:06:46.911Z,14.10
2018-05-29T05:09:14.535Z,14.67
2018-05-29T05:11:42.167Z,14.20
2018-05-29T05:14:09.796Z,14.17
2018-05-29T05:16:37.430Z,14.03
2018-05-29T05:19:05.063Z,13.63
2018-05-29T05:21:33.473Z,14.33
2018-05-29T05:24:01.108Z,13.10
2018-05-29T05:26:28.739Z,13.10
2018-05-29T05:28:56.375Z,13.53
2018-05-29T05:31:24.008Z,13.47
2018-05-29T05:33:52.409Z,13.47
2018-05-29T05:36:20.044Z,15.07
2018-05-29T05:38:47.667Z,13.83
2018-05-29T05:41:15.302Z,15.07
2018-05-29T05:43:42.943Z,15.70
2018-05-29T05:46:10.564Z,15.00
2018-05-29T05:48:38.256Z,14.23
2018-05-29T05:51:05.919Z,14.53
2018-05-29T05:53:33.526Z,15.93
2018-05-29T05:56:01.163Z,14.03
2018-05-29T05:58:28.853Z,14.97
2018-05-29T06:00:56.428Z,13.87
2018-05-29T06:03:24.055Z,14.03
2018-05-29T06:05:51.692Z,14.50
2018-05-29T06:08:19.319Z,14.03
2018-05-29T06:10:47.715Z,13.53
2018-05-29T06:13:15.345Z,14.23
2018-05-29T06:15:42.970Z,14.70
2018-05-29T06:18:10.610Z,13.73
2018-05-29T20:40:21.704Z,7.82
2018-05-29T20:42:49.328Z,5.87
2018-05-29T20:45:16.955Z,6.20
2018-05-29T20:47:44.576Z,6.00
2018-05-29T20:50:18.306Z,5.47
2018-05-29T20:52:45.931Z,6.87
2018-05-29T20:55:13.572Z,6.00
2018-05-29T20:57:41.970Z,5.73
2018-05-29T21:02:48.411Z,6.63
2018-05-29T21:05:16.036Z,6.80
2018-05-29T21:07:43.663Z,6.10
2018-05-29T21:10:11.287Z,6.17
2018-05-29T21:12:38.927Z,6.83
2018-05-29T21:15:06.560Z,7.77
2018-05-29T21:17:41.980Z,6.97
2018-05-29T21:20:09.622Z,6.43
2018-05-29T21:22:37.244Z,6.30
2018-05-29T21:25:05.260Z,6.57
2018-05-29T21:27:32.901Z,6.67
2018-05-29T21:30:00.528Z,6.20
2018-05-29T21:32:28.157Z,7.10
2018-05-29T21:34:56.123Z,6.80
2018-05-29T21:37:23.759Z,6.60
2018-05-29T21:39:51.387Z,6.73
2018-05-29T21:42:19.021Z,6.30
2018-05-29T21:44:46.644Z,6.93
2018-05-29T21:47:14.271Z,6.97
2018-05-29T21:49:58.571Z,6.53
2018-05-29T21:52:26.967Z,6.33
2018-05-29T21:54:54.598Z,6.90
2018-05-29T21:57:22.223Z,7.60
2018-05-29T21:59:49.853Z,7.10
2018-05-29T22:02:17.483Z,7.30
2018-05-29T22:04:45.109Z,7.13
2018-05-29T22:07:12.743Z,6.80
2018-05-29T22:09:41.143Z,7.43
2018-05-29T22:12:08.772Z,6.70
2018-05-29T22:14:36.407Z,7.03
2018-05-29T22:17:05.955Z,7.67
2018-05-29T22:19:33.588Z,7.70
2018-05-29T22:22:01.215Z,7.67
2018-05-29T22:24:28.851Z,7.40
2018-05-29T22:26:56.484Z,8.10
2018-05-29T22:29:24.127Z,7.83
2018-05-29T22:31:51.761Z,7.93
2018-05-29T22:34:19.400Z,7.67
2018-05-29T22:36:47.042Z,7.20
2018-05-29T22:39:14.681Z,7.27
2018-05-29T22:41:42.323Z,6.90
2018-05-29T22:44:09.952Z,7.07
2018-05-29T22:46:37.575Z,7.00
2018-05-29T22:49:05.219Z,7.33
2018-05-29T22:51:32.860Z,7.73
2018-05-29T22:54:00.493Z,6.93
2018-05-29T22:56:28.135Z,7.03
2018-05-29T22:58:55.767Z,7.13
2018-05-29T23:01:23.395Z,7.23
2018-05-29T23:03:51.022Z,7.20
2018-05-29T23:06:18.667Z,7.10
2018-05-29T23:08:46.327Z,7.30
2018-05-29T23:11:13.951Z,7.00
2018-05-29T23:13:41.579Z,7.20
2018-05-29T23:16:09.202Z,7.77
2018-05-29T23:18:36.851Z,7.03
2018-05-29T23:21:04.484Z,7.37
2018-05-29T23:23:32.127Z,8.73
2018-05-29T23:25:59.758Z,7.97
2018-05-29T23:28:27.407Z,8.13
2018-05-29T23:30:55.047Z,7.70
2018-05-29T23:33:27.910Z,8.53
2018-05-29T23:35:55.543Z,8.40
2018-05-29T23:38:23.180Z,8.70
2018-05-29T23:40:50.818Z,9.17
2018-05-29T23:43:18.462Z,9.03
2018-05-29T23:45:46.096Z,9.10
2018-05-29T23:48:13.728Z,9.33
2018-05-29T23:50:41.390Z,9.17
2018-05-29T23:53:09.038Z,9.20
2018-05-29T23:55:36.671Z,10.07
2018-05-29T23:58:04.331Z,10.13
